Time;durP1;ratioP1;P1;durP2;ratioP2;P2;SDS_P1;SDS_P2;PMS_P1;PMS_P2;Temp;Humidity;BMP_temperature;BMP_pressure;BME280_temperature;BME280_humidity;BME280_pressure;Samples;Min_cycle;Max_cycle;Signal;HPM_P1;HPM_P2
2023/03/24 00:02:04;;;;;;;1.80;1.50;;;23.30;37.70;;;;;;5072818;28;20051;-60
2023/03/24 00:04:31;;;;;;;1.58;1.20;;;23.30;38.20;;;;;;5072936;28;20052;-60
2023/03/24 00:07:00;;;;;;;1.42;1.33;;;23.30;37.60;;;;;;5072918;28;20044;-60
2023/03/24 00:09:29;;;;;;;1.60;1.50;;;23.30;37.60;;;;;;5073220;28;20053;-60
2023/03/24 00:11:57;;;;;;;1.38;1.20;;;23.30;37.60;;;;;;5071976;28;20139;-60
2023/03/24 00:14:24;;;;;;;1.65;1.55;;;23.30;37.60;;;;;;5071741;28;20064;-60
2023/03/24 00:16:53;;;;;;;1.42;1.33;;;23.30;37.60;;;;;;5089660;28;20392;-60
2023/03/24 00:19:21;;;;;;;1.65;1.55;;;23.30;37.60;;;;;;5092830;28;20440;-59
2023/03/24 00:21:48;;;;;;;2.15;1.60;;;23.30;37.60;;;;;;5092183;28;20090;-60
2023/03/24 00:24:15;;;;;;;1.50;1.40;;;23.30;37.60;;;;;;5092260;28;20050;-60
2023/03/24 00:26:43;;;;;;;1.70;1.30;;;23.30;37.60;;;;;;5093521;28;20105;-59
2023/03/24 00:29:10;;;;;;;2.05;1.75;;;23.20;37.60;;;;;;5092937;28;20086;-60
2023/03/24 00:31:38;;;;;;;1.52;1.42;;;23.20;37.60;;;;;;5093099;28;20131;-60
2023/03/24 00:34:07;;;;;;;1.70;1.60;;;23.20;37.60;;;;;;5092752;28;20560;-60
2023/03/24 00:36:36;;;;;;;1.40;1.30;;;23.20;37.60;;;;;;5091819;28;20055;-60
2023/03/24 00:39:05;;;;;;;1.45;1.35;;;23.20;37.60;;;;;;5091863;28;20044;-60
2023/03/24 00:41:32;;;;;;;1.70;1.60;;;23.20;37.60;;;;;;5093263;28;20083;-60
2023/03/24 00:44:02;;;;;;;1.45;1.35;;;23.20;37.60;;;;;;5092577;28;20131;-59
2023/03/24 00:46:29;;;;;;;1.83;1.45;;;23.20;37.60;;;;;;5092640;28;20099;-60
2023/03/24 00:49:04;;;;;;;1.40;1.27;;;23.20;37.50;;;;;;5092711;28;20048;-60
2023/03/24 00:51:39;;;;;;;1.70;1.60;;;23.20;37.50;;;;;;5093173;28;20093;-59
2023/03/24 00:54:08;;;;;;;2.70;1.95;;;23.20;37.50;;;;;;5092972;28;20127;-60
2023/03/24 00:56:39;;;;;;;1.65;1.55;;;23.20;37.40;;;;;;5091836;28;20496;-60
2023/03/24 00:59:08;;;;;;;2.33;1.60;;;23.20;37.40;;;;;;5092781;28;20113;-60
2023/03/24 01:01:39;;;;;;;1.63;1.52;;;23.30;37.40;;;;;;5092932;28;20075;-60
2023/03/24 01:04:07;;;;;;;2.75;1.63;;;23.30;37.40;;;;;;5092795;28;20484;-59
2023/03/24 01:06:35;;;;;;;1.42;1.33;;;23.30;37.40;;;;;;5092049;28;20048;-59
2023/03/24 01:09:04;;;;;;;2.30;1.90;;;23.30;37.40;;;;;;5092909;28;20404;-60
2023/03/24 01:11:37;;;;;;;1.58;1.45;;;23.30;37.40;;;;;;5092583;28;20052;-60
2023/03/24 01:14:05;;;;;;;1.38;1.27;;;23.30;37.30;;;;;;5092679;28;20133;-60
2023/03/24 01:16:32;;;;;;;1.88;1.77;;;23.30;37.30;;;;;;5092909;28;20543;-60
2023/03/24 01:18:59;;;;;;;1.40;1.20;;;23.30;37.30;;;;;;5092150;28;20480;-60
2023/03/24 01:21:26;;;;;;;1.63;1.52;;;23.30;37.30;;;;;;5092814;28;20054;-60
2023/03/24 01:23:54;;;;;;;1.67;1.58;;;23.30;37.90;;;;;;5095133;28;20135;-60
2023/03/24 01:26:21;;;;;;;1.35;1.25;;;23.20;37.30;;;;;;5096324;28;20079;-60
2023/03/24 01:28:48;;;;;;;1.70;1.60;;;23.20;37.30;;;;;;5096550;28;20050;-66
2023/03/24 01:31:16;;;;;;;1.92;1.50;;;23.20;37.30;;;;;;5096037;28;20143;-64
2023/03/24 01:33:43;;;;;;;1.63;1.52;;;23.20;37.30;;;;;;5095729;28;20082;-63
2023/03/24 01:36:10;;;;;;;1.45;1.35;;;23.20;37.30;;;;;;5095598;28;20048;-61
2023/03/24 01:38:37;;;;;;;1.85;1.75;;;23.20;37.60;;;;;;5096012;28;20105;-63
2023/03/24 01:41:05;;;;;;;1.27;1.17;;;23.20;37.40;;;;;;5096550;28;20127;-65
2023/03/24 01:43:34;;;;;;;1.50;1.40;;;23.20;37.40;;;;;;5095765;28;20090;-62
2023/03/24 01:46:18;;;;;;;1.95;1.33;;;23.10;37.30;;;;;;5096063;28;20131;-64
2023/03/24 01:48:53;;;;;;;1.30;1.17;;;23.10;37.30;;;;;;5095860;28;20044;-61
2023/03/24 01:51:35;;;;;;;1.50;1.40;;;23.10;37.30;;;;;;5095612;28;20048;-61
2023/03/24 01:54:15;;;;;;;1.52;1.35;;;23.10;37.30;;;;;;5095803;28;20044;-60
2023/03/24 01:56:48;;;;;;;1.60;1.50;;;23.10;37.30;;;;;;5095923;28;20058;-63
2023/03/24 01:59:23;;;;;;;1.63;1.52;;;23.10;37.30;;;;;;5095663;28;20085;-64
2023/03/24 02:01:53;;;;;;;1.23;1.13;;;23.10;37.30;;;;;;5096107;28;20087;-62
2023/03/24 02:04:21;;;;;;;1.40;1.30;;;23.10;37.30;;;;;;5095563;28;20044;-60
2023/03/24 02:06:49;;;;;;;1.42;1.33;;;23.10;37.30;;;;;;5095162;28;20105;-64
2023/03/24 02:09:16;;;;;;;2.05;1.55;;;23.10;37.30;;;;;;5095380;28;20046;-65
2023/03/24 02:11:44;;;;;;;1.10;1.10;;;23.10;37.30;;;;;;5095692;28;20050;-60
2023/03/24 02:14:12;;;;;;;2.60;1.50;;;23.10;37.30;;;;;;5095162;28;20067;-67
2023/03/24 02:17:20;;;;;;;2.17;1.75;;;23.10;37.30;;;;;;5095737;28;20048;-61
2023/03/24 02:20:16;;;;;;;1.50;1.40;;;23.10;37.30;;;;;;5085531;28;20580;-60
2023/03/24 02:23:23;;;;;;;1.35;1.30;;;23.10;37.30;;;;;;5074171;28;20135;-60
2023/03/24 02:26:19;;;;;;;1.65;1.55;;;23.10;37.30;;;;;;5074124;28;20438;-60
2023/03/24 02:29:16;;;;;;;1.52;1.42;;;23.10;37.30;;;;;;5073837;28;20049;-60
2023/03/24 02:32:06;;;;;;;1.67;1.58;;;23.10;37.40;;;;;;5074859;28;20135;-60
2023/03/24 02:35:03;;;;;;;2.03;1.63;;;23.00;37.30;;;;;;5073877;28;20055;-59
2023/03/24 02:38:01;;;;;;;1.42;1.33;;;23.00;37.30;;;;;;5074120;28;20044;-60
2023/03/24 02:40:51;;;;;;;2.00;1.42;;;23.00;37.30;;;;;;5074350;28;20051;-60
2023/03/24 02:43:51;;;;;;;1.52;1.42;;;23.00;37.40;;;;;;5074971;28;20052;-60
2023/03/24 02:46:38;;;;;;;1.58;1.48;;;23.00;37.30;;;;;;5074706;28;20131;-60
2023/03/24 02:49:20;;;;;;;1.52;1.42;;;23.00;37.40;;;;;;5074776;28;20048;-60
2023/03/24 02:51:59;;;;;;;1.58;1.40;;;23.00;37.40;;;;;;5074764;28;20064;-60
2023/03/24 02:54:54;;;;;;;1.50;1.40;;;23.00;37.40;;;;;;5074706;28;20041;-60
2023/03/24 02:57:41;;;;;;;1.60;1.50;;;23.00;37.40;;;;;;5072440;28;20048;-60
2023/03/24 03:00:21;;;;;;;1.63;1.52;;;23.00;37.30;;;;;;5074071;28;20135;-60
2023/03/24 03:02:56;;;;;;;1.55;1.45;;;23.00;37.30;;;;;;5074647;28;20467;-60
2023/03/24 03:05:35;;;;;;;1.98;1.70;;;23.00;37.30;;;;;;5073891;28;20048;-60
2023/03/24 03:08:06;;;;;;;1.52;1.42;;;23.00;37.30;;;;;;5074937;28;20051;-60
2023/03/24 03:10:41;;;;;;;2.33;1.70;;;23.00;37.20;;;;;;5094194;28;20131;-60
2023/03/24 03:13:32;;;;;;;1.52;1.30;;;23.10;37.20;;;;;;5093884;28;20040;-60
2023/03/24 03:16:08;;;;;;;1.88;1.75;;;23.10;37.20;;;;;;5093685;28;20059;-60
2023/03/24 03:18:48;;;;;;;1.52;1.40;;;23.00;37.10;;;;;;5094512;28;20083;-60
2023/03/24 03:21:20;;;;;;;2.45;1.40;;;23.00;37.10;;;;;;5094165;28;20134;-60
2023/03/24 03:23:52;;;;;;;1.90;1.73;;;23.00;37.10;;;;;;5094154;28;20063;-60
2023/03/24 03:26:23;;;;;;;2.00;1.80;;;23.00;37.10;;;;;;5093973;28;20138;-60
2023/03/24 03:28:56;;;;;;;3.63;1.58;;;23.10;37.10;;;;;;5093960;28;20055;-60
2023/03/24 03:31:31;;;;;;;1.80;1.70;;;23.00;37.10;;;;;;5093921;28;20407;-60
2023/03/24 03:34:17;;;;;;;2.15;1.35;;;23.10;37.10;;;;;;5094224;28;20101;-61
2023/03/24 03:36:59;;;;;;;1.45;1.35;;;23.00;37.10;;;;;;5092157;28;20048;-60
2023/03/24 03:39:35;;;;;;;1.80;1.50;;;23.00;37.10;;;;;;5093598;28;20130;-60
2023/03/24 03:42:05;;;;;;;1.88;1.42;;;23.00;37.10;;;;;;5092888;28;20040;-60
2023/03/24 03:44:32;;;;;;;1.95;1.83;;;23.00;37.20;;;;;;5093587;28;20131;-60
2023/03/24 03:46:59;;;;;;;1.45;1.35;;;23.00;37.10;;;;;;5093602;28;20044;-60
2023/03/24 03:49:26;;;;;;;1.50;1.40;;;23.00;37.20;;;;;;5093692;28;20469;-60
2023/03/24 03:51:56;;;;;;;1.70;1.52;;;22.90;37.10;;;;;;5093520;28;20048;-60
2023/03/24 03:54:27;;;;;;;1.83;1.70;;;23.00;37.20;;;;;;5093522;28;20044;-60
2023/03/24 03:56:55;;;;;;;1.73;1.50;;;23.00;37.20;;;;;;5093576;28;20412;-60
2023/03/24 03:59:33;;;;;;;1.40;1.30;;;22.90;37.20;;;;;;5093228;28;20044;-60
2023/03/24 04:02:40;;;;;;;1.75;1.65;;;22.90;37.20;;;;;;5092868;28;20052;-60
2023/03/24 04:05:31;;;;;;;1.40;1.30;;;22.90;37.20;;;;;;5092000;28;20047;-60
2023/03/24 04:08:20;;;;;;;1.65;1.50;;;22.90;37.20;;;;;;5091133;28;20051;-60
2023/03/24 04:11:10;;;;;;;1.88;1.77;;;22.90;37.20;;;;;;5093501;28;20400;-60
2023/03/24 04:14:17;;;;;;;1.45;1.33;;;22.90;37.20;;;;;;5093207;28;20050;-60
2023/03/24 04:17:13;;;;;;;1.85;1.70;;;22.90;37.20;;;;;;5091240;28;20135;-60
2023/03/24 04:20:11;;;;;;;1.58;1.48;;;22.90;37.20;;;;;;5093032;28;20052;-60
2023/03/24 04:23:08;;;;;;;1.70;1.60;;;22.90;37.20;;;;;;5092542;28;20087;-60
2023/03/24 04:26:10;;;;;;;2.50;1.33;;;22.90;37.20;;;;;;5092596;28;20136;-60
2023/03/24 04:29:17;;;;;;;1.30;1.30;;;22.90;37.20;;;;;;5093412;28;20409;-60
2023/03/24 04:31:52;;;;;;;1.58;1.48;;;22.90;37.20;;;;;;5093025;28;20131;-60
2023/03/24 04:34:29;;;;;;;1.70;1.60;;;22.90;37.20;;;;;;5091883;28;20087;-60
2023/03/24 04:37:07;;;;;;;1.85;1.48;;;22.80;37.10;;;;;;5091829;28;20052;-60
2023/03/24 04:39:37;;;;;;;1.70;1.60;;;22.90;37.20;;;;;;5092669;28;20052;-60
2023/03/24 04:42:10;;;;;;;1.83;1.50;;;22.90;37.20;;;;;;5091538;28;20047;-60
2023/03/24 04:44:40;;;;;;;6.85;1.88;;;22.90;37.20;;;;;;5091664;28;20407;-60
2023/03/24 04:47:09;;;;;;;1.40;1.30;;;22.90;37.20;;;;;;5091814;28;20131;-60
2023/03/24 04:49:38;;;;;;;1.50;1.40;;;22.80;37.20;;;;;;5092431;28;20051;-60
2023/03/24 04:52:06;;;;;;;1.13;1.05;;;22.80;37.20;;;;;;5091644;28;20120;-60
2023/03/24 04:54:33;;;;;;;2.25;1.90;;;22.80;37.10;;;;;;5092771;28;20040;-60
2023/03/24 04:57:01;;;;;;;1.17;1.05;;;22.80;37.10;;;;;;5085712;28;20392;-60
2023/03/24 04:59:30;;;;;;;1.58;1.48;;;22.80;37.10;;;;;;5082537;28;20084;-60
2023/03/24 05:01:57;;;;;;;1.20;1.17;;;22.80;37.10;;;;;;5097126;28;20044;-60
2023/03/24 05:04:26;;;;;;;1.30;1.15;;;22.80;37.10;;;;;;5096283;28;20044;-59
2023/03/24 05:06:54;;;;;;;1.40;1.30;;;22.80;37.10;;;;;;5093842;28;20136;-60
2023/03/24 05:09:23;;;;;;;1.90;1.23;;;22.80;37.10;;;;;;5096525;28;20040;-60
2023/03/24 05:11:50;;;;;;;1.73;1.50;;;22.90;37.20;;;;;;5096512;28;20524;-59
2023/03/24 05:14:18;;;;;;;1.40;1.30;;;22.90;37.10;;;;;;5096162;28;20052;-60
2023/03/24 05:16:45;;;;;;;1.52;1.38;;;22.90;37.00;;;;;;5096594;28;20496;-60
2023/03/24 05:19:12;;;;;;;1.90;1.45;;;22.90;37.00;;;;;;5088295;28;20070;-60
2023/03/24 05:21:40;;;;;;;1.65;1.20;;;22.90;36.90;;;;;;5086739;28;20045;-60
2023/03/24 05:24:07;;;;;;;1.35;1.25;;;22.90;36.90;;;;;;5076773;28;20056;-60
2023/03/24 05:26:35;;;;;;;1.50;1.40;;;22.90;36.80;;;;;;5092530;28;20087;-59
2023/03/24 05:29:02;;;;;;;2.03;1.15;;;23.00;36.80;;;;;;5078530;28;20080;-60
2023/03/24 05:31:29;;;;;;;1.50;1.33;;;23.00;36.80;;;;;;5092893;28;20119;-60
2023/03/24 05:33:56;;;;;;;1.58;1.48;;;23.00;36.80;;;;;;5095499;28;20131;-60
2023/03/24 05:36:23;;;;;;;1.55;1.45;;;23.00;36.70;;;;;;5092945;28;20084;-59
2023/03/24 05:38:50;;;;;;;0.98;0.95;;;23.00;36.70;;;;;;5093628;28;20055;-60
2023/03/24 05:41:18;;;;;;;1.55;1.45;;;23.00;36.50;;;;;;5086028;28;20547;-60
2023/03/24 05:43:45;;;;;;;1.48;1.30;;;23.00;36.40;;;;;;5086120;28;20046;-59
2023/03/24 05:46:12;;;;;;;1.67;1.15;;;23.00;36.30;;;;;;5089131;28;20048;-60
2023/03/24 05:48:39;;;;;;;1.80;1.70;;;23.00;36.30;;;;;;5080729;28;20053;-59
2023/03/24 05:51:06;;;;;;;1.55;1.50;;;23.00;36.30;;;;;;5082910;28;20135;-59
2023/03/24 05:53:33;;;;;;;1.52;1.42;;;23.10;36.30;;;;;;5086862;28;20082;-60
2023/03/24 05:56:00;;;;;;;1.42;1.33;;;23.10;36.20;;;;;;5075334;28;20052;-60
2023/03/24 05:58:27;;;;;;;1.58;1.33;;;23.10;36.20;;;;;;5082028;28;20127;-60
2023/03/24 06:00:55;;;;;;;1.27;1.17;;;23.20;36.20;;;;;;5093436;28;20044;-60
2023/03/24 06:03:23;;;;;;;1.73;1.50;;;23.20;36.10;;;;;;5092566;28;20047;-61
2023/03/24 06:05:51;;;;;;;1.85;1.75;;;23.20;36.10;;;;;;5085622;28;20045;-59
2023/03/24 06:08:18;;;;;;;1.65;1.55;;;23.20;36.00;;;;;;5082988;28;20128;-58
2023/03/24 06:10:45;;;;;;;1.35;1.25;;;23.30;35.90;;;;;;5087149;28;20055;-59
2023/03/24 06:13:12;;;;;;;2.28;1.35;;;23.30;35.90;;;;;;5084414;28;20503;-58
2023/03/24 06:15:41;;;;;;;1.60;1.48;;;23.30;35.80;;;;;;5087889;28;20044;-59
2023/03/24 06:18:09;;;;;;;2.15;1.40;;;23.30;35.70;;;;;;5084891;28;20044;-59
2023/03/24 06:20:36;;;;;;;1.55;1.45;;;23.30;35.60;;;;;;5085439;28;20044;-58
2023/03/24 06:23:03;;;;;;;1.30;1.30;;;23.40;35.60;;;;;;5081699;28;20126;-60
2023/03/24 06:25:32;;;;;;;1.52;1.45;;;23.40;35.50;;;;;;5080817;28;20506;-59
2023/03/24 06:28:03;;;;;;;1.50;1.40;;;23.40;35.50;;;;;;5081631;28;20079;-60
2023/03/24 06:30:30;;;;;;;2.80;1.67;;;23.40;35.30;;;;;;5082878;28;20048;-57
2023/03/24 06:32:57;;;;;;;1.27;1.17;;;23.50;35.30;;;;;;5082467;28;20056;-58
2023/03/24 06:35:25;;;;;;;1.50;1.23;;;23.50;35.20;;;;;;5083573;28;20044;-58
2023/03/24 06:37:52;;;;;;;2.35;1.92;;;23.60;35.20;;;;;;5076558;28;20048;-59
2023/03/24 06:40:19;;;;;;;1.52;1.42;;;23.60;35.30;;;;;;5083153;28;20173;-57
2023/03/24 06:42:48;;;;;;;3.50;1.60;;;23.60;35.20;;;;;;5087544;28;20050;-56
2023/03/24 06:45:15;;;;;;;1.95;1.77;;;23.60;35.30;;;;;;5078612;28;20047;-57
2023/03/24 06:47:43;;;;;;;4.55;1.60;;;23.70;35.30;;;;;;5080562;28;20055;-59
2023/03/24 06:50:11;;;;;;;1.70;1.60;;;23.70;35.30;;;;;;5080291;28;20083;-58
2023/03/24 06:52:38;;;;;;;1.42;1.33;;;23.70;35.20;;;;;;5075174;28;20060;-59
2023/03/24 06:55:07;;;;;;;3.88;1.58;;;23.70;35.20;;;;;;5081011;28;20036;-58
2023/03/24 06:57:34;;;;;;;3.47;1.48;;;23.70;35.20;;;;;;5075982;28;20182;-58
2023/03/24 07:00:02;;;;;;;3.97;1.75;;;23.80;35.20;;;;;;5080242;28;20044;-61
2023/03/24 07:02:34;;;;;;;1.65;1.55;;;23.80;35.20;;;;;;5083831;28;20445;-58
2023/03/24 07:05:08;;;;;;;2.58;1.70;;;23.80;35.70;;;;;;5077471;28;20116;-60
2023/03/24 07:07:35;;;;;;;1.80;1.70;;;23.90;35.20;;;;;;5077676;28;20048;-59
2023/03/24 07:10:06;;;;;;;2.22;1.75;;;23.90;35.10;;;;;;5083982;28;20052;-59
2023/03/24 07:12:35;;;;;;;3.05;2.00;;;24.00;35.30;;;;;;5082517;28;20078;-59
2023/03/24 07:15:03;;;;;;;2.95;2.05;;;24.00;35.30;;;;;;5083286;28;20054;-57
2023/03/24 07:17:30;;;;;;;2.22;1.80;;;24.00;35.10;;;;;;5084699;28;20040;-55
2023/03/24 07:19:57;;;;;;;4.88;1.90;;;24.10;35.00;;;;;;5075928;28;20048;-57
2023/03/24 07:22:25;;;;;;;4.85;2.30;;;24.10;35.30;;;;;;5079011;28;20041;-59
2023/03/24 07:24:52;;;;;;;7.82;2.17;;;24.10;34.80;;;;;;5076334;28;20475;-59
2023/03/24 07:27:20;;;;;;;6.25;2.00;;;24.20;35.00;;;;;;5076128;28;20143;-59
2023/03/24 07:29:47;;;;;;;2.88;2.20;;;24.20;35.00;;;;;;5078244;28;20119;-59
2023/03/24 07:32:14;;;;;;;2.10;1.88;;;24.30;35.10;;;;;;5079673;28;20668;-57
2023/03/24 07:34:44;;;;;;;2.65;1.60;;;24.30;35.60;;;;;;5083555;28;20062;-61
2023/03/24 07:37:11;;;;;;;5.22;1.90;;;24.40;35.00;;;;;;5081234;28;20058;-60
2023/03/24 07:39:38;;;;;;;2.20;1.83;;;24.50;35.00;;;;;;5078576;28;20484;-60
2023/03/24 07:42:06;;;;;;;1.98;1.52;;;24.50;35.00;;;;;;5077064;28;20076;-58
2023/03/24 07:44:33;;;;;;;3.40;1.73;;;24.50;34.90;;;;;;5080116;28;20062;-58
2023/03/24 07:47:01;;;;;;;2.17;1.65;;;24.60;34.90;;;;;;5077241;28;20060;-59
2023/03/24 07:49:28;;;;;;;3.40;1.33;;;24.70;34.90;;;;;;5079058;28;20040;-59
2023/03/24 07:51:57;;;;;;;2.25;1.42;;;24.70;34.80;;;;;;5077988;28;20055;-58
2023/03/24 07:54:26;;;;;;;2.22;1.77;;;24.80;34.70;;;;;;5077843;28;20543;-59
2023/03/24 07:56:53;;;;;;;3.45;1.67;;;24.80;34.60;;;;;;5079625;28;20048;-58
2023/03/24 07:59:20;;;;;;;2.20;1.67;;;24.90;34.60;;;;;;5079154;28;20136;-60
2023/03/24 08:01:48;;;;;;;3.78;1.90;;;24.90;34.60;;;;;;5080884;28;20041;-60
2023/03/24 08:04:20;;;;;;;2.40;1.60;;;24.90;34.60;;;;;;5083828;28;20051;-59
2023/03/24 08:06:48;;;;;;;4.07;1.48;;;25.00;34.60;;;;;;5082766;28;20062;-60
2023/03/24 08:09:16;;;;;;;2.92;1.60;;;25.00;34.40;;;;;;5077071;28;20044;-58
2023/03/24 08:11:43;;;;;;;3.15;1.30;;;25.00;34.30;;;;;;5078362;28;20044;-60
2023/03/24 08:14:10;;;;;;;3.58;1.98;;;25.10;34.40;;;;;;5080898;28;20074;-60
2023/03/24 08:16:41;;;;;;;2.15;1.65;;;25.10;34.40;;;;;;5082074;28;20424;-60
2023/03/24 08:19:08;;;;;;;2.67;1.95;;;25.10;34.30;;;;;;5081341;28;20098;-60
2023/03/24 08:21:35;;;;;;;4.07;2.03;;;25.20;34.30;;;;;;5079805;28;20052;-60
2023/03/24 08:24:03;;;;;;;1.73;1.58;;;25.20;34.10;;;;;;5084532;28;20058;-61
2023/03/24 08:26:33;;;;;;;2.92;1.98;;;25.20;33.90;;;;;;5079350;28;20131;-60
2023/03/24 08:29:01;;;;;;;1.77;1.45;;;25.30;33.90;;;;;;5075253;28;20052;-59
2023/03/24 08:31:33;;;;;;;1.73;1.63;;;25.30;33.90;;;;;;5078488;28;20044;-59
2023/03/24 08:34:01;;;;;;;1.90;1.73;;;25.30;33.70;;;;;;5072286;28;20127;-60
2023/03/24 08:36:28;;;;;;;3.28;1.67;;;25.30;33.50;;;;;;5080246;28;20062;-61
2023/03/24 08:38:55;;;;;;;2.92;1.48;;;25.40;33.60;;;;;;5081822;28;20409;-61
2023/03/24 08:41:33;;;;;;;3.67;1.23;;;25.40;33.60;;;;;;5080249;28;20126;-59
2023/03/24 08:44:06;;;;;;;2.55;2.35;;;25.40;33.70;;;;;;5078102;28;20045;-58
2023/03/24 08:46:34;;;;;;;2.00;1.80;;;25.40;33.80;;;;;;5081578;28;20048;-59
2023/03/24 08:49:01;;;;;;;1.63;1.52;;;25.50;33.80;;;;;;5078841;28;20401;-60
2023/03/24 08:51:30;;;;;;;2.28;2.08;;;25.50;33.70;;;;;;5075799;28;20044;-59
2023/03/24 08:53:57;;;;;;;2.90;1.90;;;25.50;33.70;;;;;;5077214;28;20506;-59
2023/03/24 08:56:24;;;;;;;2.30;1.58;;;25.50;33.30;;;;;;5074870;28;20131;-61
2023/03/24 08:58:52;;;;;;;3.70;2.17;;;25.60;33.30;;;;;;5080065;28;20036;-61
2023/03/24 09:01:21;;;;;;;1.83;1.70;;;25.70;33.40;;;;;;5080199;28;20417;-61
2023/03/24 09:03:50;;;;;;;2.20;1.75;;;25.70;33.40;;;;;;5076855;28;20048;-59
2023/03/24 09:06:18;;;;;;;3.53;2.20;;;25.70;33.30;;;;;;5078082;28;20556;-58
2023/03/24 09:08:45;;;;;;;2.42;1.60;;;25.70;33.30;;;;;;5080233;28;20048;-58
2023/03/24 09:11:14;;;;;;;4.53;1.70;;;25.80;33.20;;;;;;5082603;28;20076;-61
2023/03/24 09:13:42;;;;;;;1.70;1.60;;;25.80;33.00;;;;;;5079852;28;20074;-59
2023/03/24 09:16:10;;;;;;;1.70;1.60;;;25.80;32.80;;;;;;5082581;28;20297;-59
2023/03/24 09:18:37;;;;;;;1.95;1.75;;;25.90;32.40;;;;;;5081800;28;20043;-59
2023/03/24 09:21:05;;;;;;;1.80;1.70;;;25.90;32.40;;;;;;5082508;28;20048;-58
2023/03/24 09:23:33;;;;;;;6.20;1.58;;;25.90;32.30;;;;;;5085490;28;20102;-59
2023/03/24 09:26:01;;;;;;;4.28;1.55;;;26.00;32.10;;;;;;5086488;28;20476;-59
2023/03/24 09:28:30;;;;;;;1.40;1.30;;;25.90;31.90;;;;;;5081133;28;20052;-58
2023/03/24 09:30:59;;;;;;;6.05;1.20;;;26.00;31.70;;;;;;5085634;28;20086;-59
2023/03/24 09:33:28;;;;;;;1.60;1.50;;;26.00;31.90;;;;;;5083443;28;20104;-59
2023/03/24 09:35:57;;;;;;;10.23;1.63;;;26.00;31.90;;;;;;5080521;28;20044;-58
2023/03/24 09:38:27;;;;;;;3.63;1.27;;;26.00;31.90;;;;;;5083881;28;20098;-59
2023/03/24 09:40:59;;;;;;;5.47;1.50;;;26.00;32.00;;;;;;5083914;28;20050;-59
2023/03/24 09:43:37;;;;;;;9.65;1.92;;;26.10;31.90;;;;;;5083806;28;20059;-59
2023/03/24 09:46:10;;;;;;;3.45;1.33;;;26.10;31.70;;;;;;5083647;28;20063;-59
2023/03/24 09:48:49;;;;;;;2.90;1.20;;;26.10;31.50;;;;;;5080054;28;20052;-59
2023/03/24 09:51:30;;;;;;;3.25;1.60;;;26.10;31.30;;;;;;5086633;28;20127;-58
2023/03/24 09:54:21;;;;;;;2.78;1.60;;;26.10;31.10;;;;;;5084864;28;20043;-58
2023/03/24 09:56:49;;;;;;;3.97;1.20;;;26.20;31.10;;;;;;5083824;28;20153;-58
2023/03/24 09:59:30;;;;;;;1.40;1.30;;;26.20;30.70;;;;;;5087539;28;20047;-58
2023/03/24 10:01:57;;;;;;;2.35;1.60;;;26.20;30.60;;;;;;5086627;28;20853;-58
2023/03/24 10:04:28;;;;;;;1.42;1.33;;;26.20;30.40;;;;;;5084821;28;20555;-58
2023/03/24 10:07:24;;;;;;;2.72;1.73;;;26.20;30.40;;;;;;5082768;28;20075;-61
2023/03/24 10:09:59;;;;;;;2.08;1.40;;;26.20;30.30;;;;;;5087020;28;20044;-61
2023/03/24 10:12:36;;;;;;;1.77;1.65;;;26.30;30.70;;;;;;5084565;28;20044;-60
2023/03/24 10:15:31;;;;;;;4.10;1.73;;;26.30;30.80;;;;;;5089963;28;20124;-60
2023/03/24 10:18:29;;;;;;;1.50;1.40;;;26.30;30.40;;;;;;5086265;28;20052;-58
2023/03/24 10:21:19;;;;;;;2.03;1.38;;;26.40;31.00;;;;;;5083204;28;20707;-59
2023/03/24 10:24:18;;;;;;;2.65;1.48;;;26.40;30.60;;;;;;5085066;28;20049;-61
2023/03/24 10:27:23;;;;;;;3.35;1.52;;;26.40;30.40;;;;;;5088141;28;20082;-60
2023/03/24 10:29:53;;;;;;;2.97;1.63;;;26.50;30.50;;;;;;5082510;28;20059;-57
2023/03/24 10:32:34;;;;;;;1.67;1.42;;;26.50;30.50;;;;;;5077481;28;20079;-58
2023/03/24 10:35:08;;;;;;;3.97;1.35;;;26.50;30.10;;;;;;5084203;28;20058;-58
2023/03/24 10:37:36;;;;;;;1.73;1.58;;;26.50;29.90;;;;;;5083759;28;20044;-58
2023/03/24 10:40:16;;;;;;;5.55;1.35;;;26.50;29.90;;;;;;5085105;28;20451;-60
2023/03/24 10:42:47;;;;;;;3.30;1.38;;;26.40;29.90;;;;;;5088479;28;20105;-59
2023/03/24 10:45:33;;;;;;;1.77;1.38;;;26.40;30.00;;;;;;5089729;28;20043;-59
2023/03/24 10:48:02;;;;;;;2.03;1.63;;;26.40;30.10;;;;;;5085044;28;20067;-59
2023/03/24 10:50:32;;;;;;;3.97;1.60;;;26.40;30.00;;;;;;5088330;28;20522;-58
2023/03/24 10:53:07;;;;;;;;;;;26.40;30.10;;;;;;5084283;28;20047;-60
2023/03/24 10:55:38;;;;;;;1.50;1.40;;;26.40;30.30;;;;;;5091220;28;20010;-59
2023/03/24 10:58:35;;;;;;;4.60;1.65;;;26.40;30.30;;;;;;5086407;28;20127;-60
2023/03/24 11:01:08;;;;;;;2.10;1.60;;;26.30;30.10;;;;;;5092669;28;20066;-58
2023/03/24 11:03:36;;;;;;;1.50;1.40;;;26.30;30.20;;;;;;5091355;28;20118;-57
2023/03/24 11:06:04;;;;;;;2.33;2.03;;;26.30;30.10;;;;;;5079793;28;20543;-59
2023/03/24 11:08:37;;;;;;;1.60;1.50;;;26.40;30.20;;;;;;5083799;28;20044;-59
2023/03/24 11:11:28;;;;;;;5.53;1.35;;;26.30;29.90;;;;;;5087821;28;20400;-59
2023/03/24 11:14:00;;;;;;;3.42;1.63;;;26.30;29.40;;;;;;5087995;28;20080;-58
2023/03/24 11:16:30;;;;;;;2.30;1.30;;;26.30;29.00;;;;;;5084314;28;20105;-59
2023/03/24 11:19:05;;;;;;;3.45;1.60;;;26.30;28.80;;;;;;5088202;28;20082;-59
2023/03/24 11:21:35;;;;;;;1.38;1.10;;;26.30;28.40;;;;;;5085274;28;20068;-58
2023/03/24 11:24:14;;;;;;;3.53;1.48;;;26.20;28.10;;;;;;5081329;28;20051;-58
2023/03/24 11:27:00;;;;;;;1.45;1.02;;;26.20;27.90;;;;;;5083247;28;20550;-58
2023/03/24 11:29:31;;;;;;;1.77;1.30;;;26.20;28.00;;;;;;5083787;28;20043;-59
2023/03/24 11:32:01;;;;;;;3.92;1.70;;;26.20;28.00;;;;;;5083608;28;20446;-59
2023/03/24 11:34:37;;;;;;;1.50;1.40;;;26.20;28.10;;;;;;5082516;28;20715;-59
2023/03/24 11:37:11;;;;;;;2.90;1.38;;;26.30;28.20;;;;;;5078001;28;20139;-59
2023/03/24 11:39:38;;;;;;;3.45;1.08;;;26.30;28.10;;;;;;5080700;28;20075;-59
2023/03/24 11:42:15;;;;;;;2.83;1.10;;;26.30;27.80;;;;;;5085063;28;20048;-59
2023/03/24 11:44:50;;;;;;;1.40;1.30;;;26.30;28.00;;;;;;5080267;28;20135;-60
2023/03/24 11:47:27;;;;;;;1.45;0.90;;;26.30;28.00;;;;;;5082390;28;20091;-61
2023/03/24 11:50:18;;;;;;;2.80;1.23;;;26.30;28.00;;;;;;5079602;28;20373;-59
2023/03/24 11:53:09;;;;;;;1.20;1.10;;;26.30;28.60;;;;;;5081623;28;20054;-59
2023/03/24 11:56:02;;;;;;;1.90;1.63;;;26.30;28.50;;;;;;5082973;28;20553;-58
2023/03/24 11:58:44;;;;;;;1.15;1.05;;;26.40;29.00;;;;;;5081793;28;21376;-53
2023/03/24 12:01:30;;;;;;;2.50;1.10;;;26.30;29.10;;;;;;5080440;28;20134;-59
2023/03/24 12:04:36;;;;;;;3.30;1.30;;;26.40;29.10;;;;;;5079853;28;20128;-59
2023/03/24 12:07:39;;;;;;;1.40;1.23;;;26.40;28.90;;;;;;5082231;28;20509;-59
2023/03/24 12:10:34;;;;;;;2.03;1.65;;;26.40;29.20;;;;;;5078099;28;20051;-60
2023/03/24 12:13:34;;;;;;;1.35;1.25;;;26.40;29.40;;;;;;5082673;28;21911;-60
2023/03/24 12:16:21;;;;;;;;;;;26.50;29.30;;;;;;5085441;28;20047;-60
2023/03/24 12:19:12;;;;;;;2.88;1.23;;;26.50;29.30;;;;;;5083879;28;19924;-61
2023/03/24 12:22:19;;;;;;;3.60;1.70;;;26.50;28.90;;;;;;5080584;28;20674;-60
2023/03/24 12:25:19;;;;;;;1.17;1.08;;;26.50;29.00;;;;;;5083465;28;20051;-61
2023/03/24 12:28:21;;;;;;;2.08;1.25;;;26.60;29.10;;;;;;5080693;28;20072;-62
2023/03/24 12:31:07;;;;;;;4.97;1.45;;;26.60;29.10;;;;;;5078486;28;20075;-60
2023/03/24 12:34:00;;;;;;;8.18;1.55;;;26.60;29.50;;;;;;5082683;28;20143;-59
2023/03/24 12:36:56;;;;;;;2.05;1.50;;;26.70;29.20;;;;;;5080390;28;20040;-61
2023/03/24 12:40:05;;;;;;;3.97;1.10;;;26.60;28.90;;;;;;5078695;28;20089;-60
2023/03/24 12:42:39;;;;;;;2.35;1.30;;;26.70;29.30;;;;;;5072670;28;20056;-60
2023/03/24 12:45:41;;;;;;;0.93;0.88;;;26.70;29.30;;;;;;5078098;28;20086;-58
2023/03/24 12:48:47;;;;;;;3.17;1.50;;;26.80;29.10;;;;;;5078101;28;20101;-62
2023/03/24 12:51:30;;;;;;;1.70;1.05;;;26.80;29.10;;;;;;5077516;28;20047;-59
2023/03/24 12:54:35;;;;;;;1.73;0.95;;;26.80;29.10;;;;;;5077043;28;20060;-59
2023/03/24 12:57:12;;;;;;;4.03;1.50;;;26.80;29.40;;;;;;5079356;28;20046;-59
2023/03/24 12:59:56;;;;;;;1.83;1.30;;;26.80;29.80;;;;;;5078886;28;20041;-59
2023/03/24 13:02:37;;;;;;;1.40;1.30;;;26.90;29.70;;;;;;5074736;28;20048;-59
2023/03/24 13:05:14;;;;;;;1.25;0.90;;;26.90;29.70;;;;;;5079224;28;20076;-59
2023/03/24 13:07:46;;;;;;;1.60;1.25;;;26.90;29.70;;;;;;5078741;28;20052;-59
2023/03/24 13:10:28;;;;;;;3.08;1.15;;;27.00;29.60;;;;;;5080460;28;20109;-60
2023/03/24 13:13:12;;;;;;;3.42;1.35;;;27.00;29.70;;;;;;5081364;28;20055;-60
2023/03/24 13:15:55;;;;;;;1.75;1.23;;;27.00;29.80;;;;;;5080951;28;20048;-58
2023/03/24 13:18:41;;;;;;;1.23;1.13;;;27.00;29.90;;;;;;5088057;28;20052;-59
2023/03/24 13:21:15;;;;;;;4.32;1.42;;;27.00;29.90;;;;;;5089193;28;20040;-59
2023/03/24 13:24:06;;;;;;;1.73;1.15;;;26.90;29.90;;;;;;5095723;28;20051;-59
2023/03/24 13:26:48;;;;;;;1.92;1.25;;;26.90;29.90;;;;;;5094356;28;20503;-59
2023/03/24 13:29:55;;;;;;;2.70;1.75;;;26.90;30.00;;;;;;5094818;28;20408;-60